ESOK/KSD METAR and TAF weather

Enter ICAO airport designator
Station Type Date Time Source
ESOK METAR 2022/05/26 03:50 UTC NOAA

ESOK 260350Z AUTO 16009KT 9999 -RA FEW012/// SCT022/// BKN035/// 10/07 Q1001 REDZ


Station Type Date Time Source
ESOK Decoded METAR 2022/05/26 03:50 UTC NOAA

Karlstad , Sweden (ESOK) 59-26-41N 013-20-15E
May 25, 2022 - 11:50 PM EDT / 2022.05.26 0350 UTC
Wind: from the SSE (160 degrees) at 10 MPH (9 KT):0
Visibility: greater than 7 mile(s):0
Sky conditions: mostly cloudy
Weather: light rain
Temperature: 50 F (10 C)
Dew Point: 44 F (7 C)
Relative Humidity: 81%
Pressure (altimeter): 29.56 in. Hg (1001 hPa)
ob: ESOK 260350Z AUTO 16009KT 9999 -RA FEW012/// SCT022/// BKN035/// 10/07 Q1001 REDZ
cycle: 4

Station Type Date Time Source
ESOK TAF 2022/04/07 18:36 UTC NOAA

TAF TAF
AMD ESOK 071731Z 0718/0806 CNL

Example: see airport list